Time;durP1;ratioP1;P1;durP2;ratioP2;P2;SDS_P1;SDS_P2;PMS_P1;PMS_P2;Temp;Humidity;BMP_temperature;BMP_pressure;BME280_temperature;BME280_humidity;BME280_pressure;Samples;Min_cycle;Max_cycle;Signal;HPM_P1;HPM_P2
2023/07/12 00:01:22;;;;;;;6.75;4.03;;;;;;;27.42;54.31;100772.38;5112303;27;20036;-57
2023/07/12 00:03:50;;;;;;;8.48;4.25;;;;;;;27.44;54.28;100767.59;5117113;27;20047;-57
2023/07/12 00:06:33;;;;;;;7.43;4.35;;;;;;;27.44;54.23;100767.59;5115467;27;20055;-57
2023/07/12 00:09:00;;;;;;;8.77;4.57;;;;;;;27.45;54.47;100772.00;5113386;27;20058;-57
2023/07/12 00:11:28;;;;;;;10.38;5.53;;;;;;;27.47;54.23;100772.69;5112301;27;20055;-57
2023/07/12 00:13:55;;;;;;;10.35;4.60;;;;;;;27.48;54.47;100790.66;5125248;27;20409;-57
2023/07/12 00:16:27;;;;;;;9.40;5.07;;;;;;;27.48;54.38;100793.41;5114876;27;20052;-57
2023/07/12 00:18:56;;;;;;;9.18;4.60;;;;;;;27.50;54.49;100804.06;5112431;27;20052;-56
2023/07/12 00:21:26;;;;;;;11.23;4.63;;;;;;;27.52;54.28;100807.47;5117408;27;20040;-57
2023/07/12 00:23:56;;;;;;;8.40;4.35;;;;;;;27.52;54.21;100804.75;5115066;27;20488;-56
2023/07/12 00:26:29;;;;;;;7.30;4.70;;;;;;;27.54;54.35;100813.53;5114662;27;20040;-57
2023/07/12 00:28:57;;;;;;;6.53;3.97;;;;;;;27.54;54.03;100800.78;5112641;27;20413;-55
2023/07/12 00:31:25;;;;;;;10.45;5.53;;;;;;;27.55;54.32;100812.53;5116091;27;20038;-54
2023/07/12 00:33:53;;;;;;;8.70;3.95;;;;;;;27.57;54.30;100821.34;5114324;27;20047;-54
2023/07/12 00:36:23;;;;;;;7.30;4.15;;;;;;;27.58;53.94;100823.84;5113255;27;20055;-54
2023/07/12 00:38:51;;;;;;;8.27;3.83;;;;;;;27.59;54.11;100841.88;5112963;27;20044;-56
2023/07/12 00:42:00;;;;;;;5.68;3.75;;;;;;;27.59;53.83;100852.75;5115874;27;20039;-55
2023/07/12 00:44:36;;;;;;;5.75;4.38;;;;;;;27.60;54.14;100849.00;5111964;27;20048;-55
2023/07/12 00:47:04;;;;;;;7.85;4.40;;;;;;;27.61;53.88;100845.25;5122235;27;20054;-56
2023/07/12 00:49:31;;;;;;;7.53;4.63;;;;;;;27.63;54.22;100844.22;5112007;27;20062;-57
2023/07/12 00:52:05;;;;;;;8.70;4.05;;;;;;;27.64;54.38;100832.31;5112549;27;20516;-56
2023/07/12 00:54:50;;;;;;;7.43;4.60;;;;;;;27.65;54.31;100844.88;5112415;27;20048;-55
2023/07/12 00:57:18;;;;;;;7.65;4.13;;;;;;;27.65;54.22;100834.84;5103259;27;20050;-54
2023/07/12 00:59:45;;;;;;;9.60;4.40;;;;;;;27.66;54.00;100841.13;5112198;27;20070;-54
2023/07/12 01:02:14;;;;;;;10.48;4.65;;;;;;;27.68;54.36;100852.69;5111588;27;20046;-55
2023/07/12 01:04:45;;;;;;;7.00;4.18;;;;;;;27.69;54.22;100852.47;5115659;27;20050;-55
2023/07/12 01:07:16;;;;;;;6.75;4.15;;;;;;;27.70;54.49;100847.88;5113677;27;20497;-56
2023/07/12 01:09:44;;;;;;;6.93;3.65;;;;;;;27.71;54.38;100857.72;5117237;27;20047;-55
2023/07/12 01:12:13;;;;;;;8.90;3.80;;;;;;;27.72;54.09;100854.00;5112608;27;20052;-56
2023/07/12 01:14:41;;;;;;;10.05;4.40;;;;;;;27.73;54.53;100858.41;5115712;27;20070;-56
2023/07/12 01:17:09;;;;;;;6.38;4.63;;;;;;;27.73;54.47;100852.94;5113737;27;20521;-55
2023/07/12 01:19:39;;;;;;;9.15;4.40;;;;;;;27.75;54.55;100857.22;5113636;27;20417;-55
2023/07/12 01:22:07;;;;;;;9.10;4.25;;;;;;;27.75;54.43;100840.03;5112307;27;20043;-55
2023/07/12 01:24:35;;;;;;;8.80;4.80;;;;;;;27.76;54.40;100833.56;5114829;27;20055;-55
2023/07/12 01:27:19;;;;;;;6.28;4.47;;;;;;;27.77;54.10;100838.81;5119300;28;20103;-55
2023/07/12 01:29:48;;;;;;;8.23;4.20;;;;;;;27.78;54.43;100834.22;5111827;28;20074;-55
2023/07/12 01:32:17;;;;;;;5.57;4.20;;;;;;;27.77;54.21;100830.66;5122780;28;20047;-55
2023/07/12 01:34:45;;;;;;;8.48;4.38;;;;;;;27.79;54.23;100838.63;5113454;28;20405;-55
2023/07/12 01:37:13;;;;;;;8.63;4.13;;;;;;;27.80;54.18;100848.50;5113875;28;20043;-55
2023/07/12 01:39:40;;;;;;;9.82;4.20;;;;;;;27.81;54.42;100861.06;5110574;28;20048;-54
2023/07/12 01:42:10;;;;;;;8.13;3.97;;;;;;;27.81;54.26;100851.00;5115841;28;20054;-55
2023/07/12 01:44:38;;;;;;;7.25;4.32;;;;;;;27.82;54.44;100858.13;5113820;28;20047;-55
2023/07/12 01:47:06;;;;;;;6.93;3.90;;;;;;;27.84;54.54;100849.81;5113680;28;20493;-55
2023/07/12 01:49:33;;;;;;;5.28;3.78;;;;;;;27.84;54.57;100858.81;5110787;27;20056;-55
2023/07/12 01:52:01;;;;;;;9.35;4.28;;;;;;;27.84;54.76;100847.94;5119927;27;20070;-55
2023/07/12 01:54:28;;;;;;;7.00;4.20;;;;;;;27.86;54.23;100874.94;5117478;27;20066;-56
2023/07/12 01:56:55;;;;;;;7.30;4.05;;;;;;;27.87;54.29;100864.88;5117917;27;20047;-55
2023/07/12 01:59:23;;;;;;;6.15;4.28;;;;;;;27.88;54.69;100872.03;5113377;27;20394;-55
2023/07/12 02:01:50;;;;;;;4.93;3.97;;;;;;;27.90;54.40;100875.41;5118586;27;20055;-54
2023/07/12 02:04:17;;;;;;;5.68;4.25;;;;;;;27.91;54.27;100871.66;5117396;27;20048;-55
2023/07/12 02:06:45;;;;;;;7.30;4.75;;;;;;;27.91;54.53;100877.94;5117479;27;20044;-54
2023/07/12 02:09:12;;;;;;;6.53;4.45;;;;;;;27.92;54.37;100892.41;5118021;27;20512;-55
2023/07/12 02:11:40;;;;;;;5.97;4.05;;;;;;;27.93;54.31;100902.25;5119190;27;20519;-54
2023/07/12 02:14:08;;;;;;;6.38;4.45;;;;;;;27.93;55.16;100908.53;5117634;27;20055;-54
2023/07/12 02:16:35;;;;;;;7.55;4.93;;;;;;;27.94;55.62;100929.25;5117235;27;20582;-56
2023/07/12 02:19:02;;;;;;;6.53;4.80;;;;;;;27.94;56.03;100937.44;5112875;27;20501;-57
2023/07/12 02:21:30;;;;;;;8.80;5.50;;;;;;;27.96;56.33;100946.25;5119512;27;20043;-57
2023/07/12 02:23:58;;;;;;;6.80;5.05;;;;;;;27.95;56.44;100944.53;5117231;27;20047;-57
2023/07/12 02:26:26;;;;;;;9.27;5.60;;;;;;;27.96;56.25;100942.69;5117881;27;20409;-57
2023/07/12 02:28:53;;;;;;;7.47;5.47;;;;;;;27.97;56.35;100947.09;5114407;27;20056;-57
2023/07/12 02:31:23;;;;;;;7.72;6.07;;;;;;;27.97;56.58;100945.22;5119369;27;20388;-57
2023/07/12 02:33:55;;;;;;;9.27;5.28;;;;;;;27.98;56.78;100951.50;5115534;27;20420;-57
2023/07/12 02:36:22;;;;;;;11.55;6.22;;;;;;;27.98;56.58;100957.78;5116219;27;20052;-55
2023/07/12 02:38:50;;;;;;;8.43;5.32;;;;;;;28.00;56.64;100968.50;5116091;27;20048;-54
2023/07/12 02:41:18;;;;;;;9.32;5.43;;;;;;;28.00;56.93;100973.94;5116861;27;20051;-55
2023/07/12 02:43:47;;;;;;;9.52;6.68;;;;;;;28.01;56.93;100976.47;5109625;27;20054;-54
2023/07/12 02:46:14;;;;;;;9.85;6.70;;;;;;;28.01;57.90;100973.75;5115777;27;20075;-54
2023/07/12 02:48:43;;;;;;;11.10;6.95;;;;;;;28.02;57.71;100972.72;5116440;27;20066;-55
2023/07/12 02:51:10;;;;;;;10.07;6.80;;;;;;;28.01;57.48;100972.91;5117823;27;20048;-55
2023/07/12 02:53:38;;;;;;;10.23;6.82;;;;;;;28.03;57.62;100982.56;5116685;27;20043;-55
2023/07/12 02:56:08;;;;;;;9.05;7.18;;;;;;;28.03;58.36;100977.13;5116803;27;20046;-56
2023/07/12 02:58:36;;;;;;;8.68;6.82;;;;;;;28.03;58.08;100977.13;5122248;27;20051;-55
2023/07/12 03:01:04;;;;;;;9.02;6.82;;;;;;;28.03;58.09;100979.84;5116068;27;20044;-55
2023/07/12 03:03:31;;;;;;;11.82;8.05;;;;;;;28.03;58.64;100982.56;5116534;27;20036;-55
2023/07/12 03:06:05;;;;;;;10.75;7.18;;;;;;;28.04;58.47;100991.59;5114535;27;20047;-56
2023/07/12 03:08:32;;;;;;;12.80;6.30;;;;;;;28.04;58.18;100992.44;5118792;27;20047;-55
2023/07/12 03:11:02;;;;;;;10.85;7.07;;;;;;;28.04;58.06;100991.59;5116395;27;20046;-55
2023/07/12 03:13:30;;;;;;;8.13;6.35;;;;;;;28.05;58.23;100999.56;5119237;27;20043;-55
2023/07/12 03:15:58;;;;;;;10.35;6.28;;;;;;;28.05;58.13;101002.28;5115922;27;20401;-56
2023/07/12 03:18:25;;;;;;;12.77;7.68;;;;;;;28.06;57.89;101000.41;5122805;27;20507;-57
2023/07/12 03:20:59;;;;;;;6.97;6.28;;;;;;;28.07;57.96;100996.66;5119042;27;20044;-57
2023/07/12 03:23:28;;;;;;;8.00;6.05;;;;;;;28.07;58.40;101000.22;5119305;27;20035;-57
2023/07/12 03:25:56;;;;;;;10.25;7.10;;;;;;;28.09;58.32;100997.31;5113273;27;20048;-56
2023/07/12 03:28:23;;;;;;;10.18;7.50;;;;;;;28.09;58.32;100995.44;5121190;27;20055;-57
2023/07/12 03:30:57;;;;;;;8.27;7.15;;;;;;;28.10;58.42;100997.13;5115875;27;20047;-57
2023/07/12 03:33:24;;;;;;;9.75;7.95;;;;;;;28.10;59.30;100994.41;5118430;27;20040;-57
2023/07/12 03:35:52;;;;;;;7.85;7.07;;;;;;;28.12;58.92;100994.25;5118010;27;20051;-57
2023/07/12 03:38:20;;;;;;;10.93;8.07;;;;;;;28.13;58.89;100997.78;5117164;27;20043;-56
2023/07/12 03:40:47;;;;;;;9.95;7.90;;;;;;;28.14;59.34;100991.31;5115575;27;20040;-55
2023/07/12 03:43:15;;;;;;;9.10;7.07;;;;;;;28.14;59.00;100985.88;5115618;27;20067;-55
2023/07/12 03:45:43;;;;;;;9.52;6.93;;;;;;;28.14;59.07;100985.88;5120693;27;20497;-55
2023/07/12 03:48:11;;;;;;;8.82;7.13;;;;;;;28.15;59.11;100982.09;5116890;27;20051;-57
2023/07/12 03:50:41;;;;;;;8.35;7.47;;;;;;;28.15;59.37;100968.50;5118673;27;20047;-57
2023/07/12 03:53:08;;;;;;;9.48;8.48;;;;;;;28.16;59.12;100959.31;5118686;27;20043;-57
2023/07/12 03:55:41;;;;;;;10.60;7.57;;;;;;;28.15;59.57;100955.72;5120855;27;20489;-58
2023/07/12 03:58:15;;;;;;;9.73;7.43;;;;;;;28.16;59.82;100962.03;5110279;27;20056;-57
2023/07/12 04:00:45;;;;;;;8.75;7.85;;;;;;;28.16;59.56;100962.03;5118277;27;20047;-57
2023/07/12 04:03:13;;;;;;;9.82;7.45;;;;;;;28.18;59.72;100962.69;5114966;27;20039;-58
2023/07/12 04:05:42;;;;;;;9.30;7.82;;;;;;;28.17;60.09;100959.13;5126315;27;20050;-58
2023/07/12 04:08:12;;;;;;;8.88;7.47;;;;;;;28.17;59.91;100967.28;5118498;27;20047;-57
2023/07/12 04:10:39;;;;;;;8.65;7.80;;;;;;;28.18;59.86;100962.69;5118281;27;20413;-57
2023/07/12 04:13:07;;;;;;;8.90;7.75;;;;;;;28.18;59.56;100971.69;5117646;28;20040;-57
2023/07/12 04:15:35;;;;;;;11.63;7.75;;;;;;;28.19;59.92;100969.81;5120631;27;20043;-57
2023/07/12 04:18:03;;;;;;;9.35;8.38;;;;;;;28.19;59.85;100967.09;5114944;27;20055;-57
2023/07/12 04:20:31;;;;;;;9.50;7.85;;;;;;;28.19;60.30;100953.47;5118046;27;20039;-58
2023/07/12 04:22:58;;;;;;;10.02;8.07;;;;;;;28.20;59.82;100947.03;5115769;27;20039;-58
2023/07/12 04:25:26;;;;;;;9.43;8.13;;;;;;;28.20;59.84;100936.97;5120281;27;20043;-58
2023/07/12 04:27:53;;;;;;;11.85;8.23;;;;;;;28.21;60.21;100922.31;5117779;27;20054;-58
2023/07/12 04:30:20;;;;;;;10.15;9.00;;;;;;;28.20;60.10;100931.53;5117748;27;20055;-58
2023/07/12 04:32:47;;;;;;;10.73;9.20;;;;;;;28.21;60.86;100932.38;5115208;27;20036;-58
2023/07/12 04:35:15;;;;;;;9.48;8.40;;;;;;;28.22;60.58;100934.06;5119694;27;20043;-57
2023/07/12 04:37:49;;;;;;;10.15;8.88;;;;;;;28.23;60.24;100941.19;5117602;27;20051;-57
2023/07/12 04:40:17;;;;;;;11.10;8.60;;;;;;;28.23;60.46;100936.59;5114239;27;20473;-58
2023/07/12 04:42:45;;;;;;;10.45;8.85;;;;;;;28.24;60.18;100942.91;5117333;27;20043;-57
2023/07/12 04:45:13;;;;;;;11.55;8.52;;;;;;;28.24;60.49;100953.78;5115456;27;20058;-57
2023/07/12 04:47:41;;;;;;;12.02;9.00;;;;;;;28.24;60.79;100953.78;5114337;27;20048;-57
2023/07/12 04:50:11;;;;;;;10.07;8.65;;;;;;;28.25;60.51;100955.47;5117431;27;20047;-58
2023/07/12 04:52:39;;;;;;;11.10;9.38;;;;;;;28.25;60.75;100969.09;5119548;27;20049;-57
2023/07/12 04:55:20;;;;;;;11.80;9.20;;;;;;;28.25;61.25;100961.75;5117881;27;20048;-58
2023/07/12 04:57:47;;;;;;;11.93;9.32;;;;;;;28.26;61.12;100959.88;5114354;27;20043;-55
2023/07/12 05:00:15;;;;;;;11.52;9.65;;;;;;;28.25;60.96;100955.47;5116694;27;20063;-55
2023/07/12 05:02:43;;;;;;;10.82;8.90;;;;;;;28.26;60.58;100955.28;5125243;27;20408;-55
2023/07/12 05:05:13;;;;;;;10.75;8.32;;;;;;;28.27;60.50;100959.66;5114272;27;20485;-56
2023/07/12 05:07:41;;;;;;;11.65;9.15;;;;;;;28.28;60.52;100946.94;5114198;27;20047;-57
2023/07/12 05:10:10;;;;;;;10.63;9.07;;;;;;;28.28;61.12;100945.06;5111444;27;20048;-58
2023/07/12 05:12:38;;;;;;;10.38;8.95;;;;;;;28.28;61.23;100934.16;5110977;27;20072;-58
2023/07/12 05:15:07;;;;;;;12.73;10.68;;;;;;;28.29;61.37;100927.66;5113941;27;20043;-57
2023/07/12 05:17:35;;;;;;;11.88;10.65;;;;;;;28.28;61.75;100926.00;5114004;27;20043;-57
2023/07/12 05:20:05;;;;;;;11.90;9.10;;;;;;;28.27;61.40;100927.00;5112609;27;20371;-58
2023/07/12 05:22:33;;;;;;;9.38;8.43;;;;;;;28.29;61.21;100930.41;5115287;27;20039;-58
2023/07/12 05:25:00;;;;;;;10.32;8.70;;;;;;;28.30;61.30;100920.34;5113736;27;20479;-58
2023/07/12 05:27:28;;;;;;;10.75;8.98;;;;;;;28.31;61.37;100919.31;5113254;28;20047;-58
2023/07/12 05:29:55;;;;;;;9.45;8.35;;;;;;;28.31;60.82;100917.44;5113409;28;20040;-58
2023/07/12 05:32:22;;;;;;;13.45;9.90;;;;;;;28.32;61.46;100929.19;5115223;28;20039;-58
2023/07/12 05:34:50;;;;;;;11.05;8.35;;;;;;;28.34;61.32;100932.53;5113496;28;20039;-58
2023/07/12 05:37:17;;;;;;;10.82;9.52;;;;;;;28.35;61.36;100923.34;5113380;28;20050;-55
2023/07/12 05:39:45;;;;;;;9.82;8.63;;;;;;;28.33;60.99;100926.25;5112680;28;20043;-56
2023/07/12 05:42:12;;;;;;;9.95;8.95;;;;;;;28.35;61.17;100912.44;5118511;28;20055;-55
2023/07/12 05:44:40;;;;;;;10.60;8.77;;;;;;;28.35;61.27;100909.72;5117085;28;20047;-55
2023/07/12 05:47:07;;;;;;;10.63;9.02;;;;;;;28.33;61.02;100907.19;5116685;28;20039;-56
2023/07/12 05:49:35;;;;;;;10.93;8.48;;;;;;;28.37;61.09;100893.25;5113060;28;20055;-55
2023/07/12 05:52:03;;;;;;;10.10;8.15;;;;;;;28.37;61.14;100890.53;5117847;28;20048;-56
2023/07/12 05:54:30;;;;;;;9.52;7.95;;;;;;;28.38;61.39;100881.31;5116710;28;20051;-56
2023/07/12 05:56:58;;;;;;;9.95;8.98;;;;;;;28.38;61.00;100887.59;5117261;28;20370;-57
2023/07/12 05:59:25;;;;;;;10.18;8.25;;;;;;;28.39;61.12;100885.72;5118072;28;20404;-57
2023/07/12 06:01:52;;;;;;;9.40;8.35;;;;;;;28.40;61.51;100888.28;5117975;28;20039;-58
2023/07/12 06:04:20;;;;;;;10.13;8.88;;;;;;;28.40;61.37;100888.28;5116617;28;20412;-58
2023/07/12 06:06:50;;;;;;;11.25;9.00;;;;;;;28.42;61.63;100904.41;5116698;28;20044;-58
2023/07/12 06:09:17;;;;;;;11.50;8.93;;;;;;;28.42;61.66;100907.97;5115245;28;20051;-58
2023/07/12 06:11:45;;;;;;;9.73;8.73;;;;;;;28.43;61.85;100908.81;5114381;28;20051;-58
2023/07/12 06:14:12;;;;;;;11.02;9.68;;;;;;;28.44;61.51;100905.03;5113233;28;20066;-57
2023/07/12 06:16:41;;;;;;;9.85;8.95;;;;;;;28.44;61.97;100911.38;5112631;28;20047;-57
2023/07/12 06:19:09;;;;;;;10.07;9.02;;;;;;;28.44;61.64;100910.50;5113646;28;20051;-58
2023/07/12 06:21:37;;;;;;;11.57;9.40;;;;;;;28.44;62.02;100900.47;5113863;28;20048;-58
2023/07/12 06:24:06;;;;;;;10.57;8.60;;;;;;;28.45;61.98;100893.97;5113331;28;20040;-57
2023/07/12 06:26:33;;;;;;;11.70;9.32;;;;;;;28.47;62.24;100891.91;5108856;28;20048;-57
2023/07/12 06:29:02;;;;;;;14.07;10.77;;;;;;;28.47;64.33;100891.06;5113905;28;20421;-58
2023/07/12 06:31:29;;;;;;;13.98;11.90;;;;;;;28.47;65.32;100888.34;5113412;28;20051;-57
2023/07/12 06:34:00;;;;;;;13.77;11.98;;;;;;;28.47;65.50;100893.78;5112034;28;20043;-58
2023/07/12 06:36:28;;;;;;;13.63;12.07;;;;;;;28.47;65.14;100885.59;5113915;27;20070;-57
2023/07/12 06:38:55;;;;;;;12.32;10.85;;;;;;;28.49;65.29;100892.56;5119107;27;20424;-58
2023/07/12 06:41:23;;;;;;;11.73;10.55;;;;;;;28.50;65.37;100891.53;5106873;27;20054;-56
2023/07/12 06:43:51;;;;;;;14.63;11.45;;;;;;;28.52;65.35;100889.47;5117144;27;20047;-54
2023/07/12 06:46:18;;;;;;;13.35;11.70;;;;;;;28.53;66.04;100902.03;5114990;27;20047;-55
2023/07/12 06:48:45;;;;;;;13.88;12.48;;;;;;;28.52;66.63;100903.09;5117785;27;20058;-53
2023/07/12 06:51:13;;;;;;;14.35;12.95;;;;;;;28.54;67.15;100913.78;5106824;27;20051;-54
2023/07/12 06:53:40;;;;;;;13.82;12.00;;;;;;;28.55;67.73;100910.84;5116018;27;20062;-55
2023/07/12 06:56:07;;;;;;;15.32;13.00;;;;;;;28.55;67.70;100918.19;5114431;27;20051;-58
2023/07/12 06:58:35;;;;;;;16.55;13.13;;;;;;;28.53;68.25;100918.38;5118336;27;20503;-58
2023/07/12 07:01:07;;;;;;;16.92;14.15;;;;;;;28.50;68.69;100932.38;5116241;27;20040;-58
2023/07/12 07:03:36;;;;;;;16.42;13.32;;;;;;;28.48;69.12;100944.47;5116023;27;20048;-58
2023/07/12 07:06:04;;;;;;;14.68;13.23;;;;;;;28.48;68.89;100955.38;5113483;27;20044;-57
2023/07/12 07:08:32;;;;;;;15.10;12.82;;;;;;;28.50;68.96;100966.94;5125245;27;20051;-54
2023/07/12 07:11:00;;;;;;;14.77;13.27;;;;;;;28.51;69.11;100976.78;5116344;27;20485;-54
2023/07/12 07:13:28;;;;;;;13.95;12.45;;;;;;;28.51;68.62;100987.69;5115936;27;20493;-55
2023/07/12 07:15:56;;;;;;;15.63;12.25;;;;;;;28.51;68.88;100999.41;5113007;27;20048;-57
2023/07/12 07:18:23;;;;;;;14.43;11.88;;;;;;;28.52;68.95;101017.47;5123475;27;20094;-58
2023/07/12 07:20:52;;;;;;;15.85;12.85;;;;;;;28.53;68.89;101012.88;5115710;27;20396;-58
2023/07/12 07:23:20;;;;;;;17.67;12.40;;;;;;;28.55;68.63;101038.03;5115666;27;20044;-59
2023/07/12 07:25:48;;;;;;;14.60;12.43;;;;;;;28.56;68.88;101051.47;5111451;27;20040;-59
2023/07/12 07:28:15;;;;;;;15.75;12.13;;;;;;;28.58;69.16;101052.13;5118264;27;20043;-59
2023/07/12 07:30:42;;;;;;;14.25;12.27;;;;;;;28.59;69.30;101061.97;5115740;27;20043;-58
2023/07/12 07:33:10;;;;;;;15.13;11.98;;;;;;;28.59;68.74;101070.13;5115935;27;20489;-59
2023/07/12 07:35:38;;;;;;;13.90;12.25;;;;;;;28.59;68.76;101061.13;5112881;27;20040;-59
2023/07/12 07:38:05;;;;;;;14.32;12.73;;;;;;;28.62;68.86;101059.91;5118221;27;20472;-59
2023/07/12 07:40:33;;;;;;;13.00;11.60;;;;;;;28.61;68.65;101066.41;5115317;27;20484;-59
2023/07/12 07:43:01;;;;;;;15.35;12.32;;;;;;;28.63;68.38;101053.44;5114519;27;20484;-59
2023/07/12 07:45:28;;;;;;;14.05;12.55;;;;;;;28.64;68.39;101053.22;5111994;27;20040;-59
2023/07/12 07:47:56;;;;;;;14.02;11.90;;;;;;;28.64;68.35;101042.34;5117750;27;20047;-58
2023/07/12 07:50:23;;;;;;;12.70;11.45;;;;;;;28.65;68.33;101046.78;5115146;27;20074;-58
2023/07/12 07:52:53;;;;;;;14.65;11.82;;;;;;;28.67;68.04;101049.28;5115323;27;20047;-58
2023/07/12 07:55:21;;;;;;;12.07;10.80;;;;;;;28.67;67.79;101043.84;5115436;27;20547;-58
2023/07/12 07:57:49;;;;;;;15.82;11.30;;;;;;;28.68;67.91;101048.25;5117047;27;20047;-58
2023/07/12 08:00:16;;;;;;;13.27;11.82;;;;;;;28.67;67.81;101055.59;5114779;27;20397;-58
2023/07/12 08:02:44;;;;;;;11.80;10.60;;;;;;;28.68;68.08;101050.97;5114938;27;20052;-57
2023/07/12 08:05:13;;;;;;;12.80;10.38;;;;;;;28.70;67.86;101054.38;5112226;27;20409;-57
2023/07/12 08:07:43;;;;;;;12.00;10.75;;;;;;;28.70;67.49;101051.66;5116991;27;20054;-57
2023/07/12 08:10:14;;;;;;;12.50;11.20;;;;;;;28.70;67.25;101054.38;5114692;27;20047;-57
2023/07/12 08:12:41;;;;;;;11.82;10.57;;;;;;;28.70;66.87;101063.38;5114093;27;20044;-56
2023/07/12 08:15:10;;;;;;;14.63;10.90;;;;;;;28.71;67.01;101066.94;5114323;27;20044;-57
2023/07/12 08:17:37;;;;;;;11.38;10.23;;;;;;;28.71;67.01;101058.78;5115735;27;20052;-57
2023/07/12 08:20:06;;;;;;;12.27;10.35;;;;;;;28.72;66.80;101060.47;5114852;27;20051;-58
2023/07/12 08:22:34;;;;;;;12.45;10.68;;;;;;;28.72;66.92;101060.47;5113339;27;20405;-58
2023/07/12 08:25:03;;;;;;;13.35;11.13;;;;;;;28.73;66.50;101068.47;5115107;27;20409;-58
2023/07/12 08:27:33;;;;;;;12.73;10.73;;;;;;;28.75;66.68;101073.72;5115025;27;20442;-58
2023/07/12 08:30:02;;;;;;;13.68;12.10;;;;;;;28.78;66.76;101067.91;5114782;27;20048;-58
2023/07/12 08:32:33;;;;;;;12.68;10.57;;;;;;;28.79;66.60;101061.41;5112624;27;20054;-58
2023/07/12 08:35:01;;;;;;;13.32;11.45;;;;;;;28.81;66.52;101062.91;5117030;27;20047;-59
2023/07/12 08:37:30;;;;;;;12.75;9.43;;;;;;;28.79;66.60;101064.97;5114684;27;20048;-55
2023/07/12 08:39:57;;;;;;;11.20;9.55;;;;;;;28.80;66.52;101063.97;5114490;27;20405;-56
2023/07/12 08:42:39;;;;;;;15.63;10.98;;;;;;;28.81;66.76;101062.91;5111570;27;20147;-57
2023/07/12 08:45:28;;;;;;;10.95;9.90;;;;;;;28.81;66.30;101062.91;5124094;27;20069;-57
2023/07/12 08:48:03;;;;;;;11.18;10.05;;;;;;;28.82;66.24;101061.03;5118223;27;20051;-57
2023/07/12 08:50:44;;;;;;;11.38;10.05;;;;;;;28.82;66.53;101067.31;5113081;27;20044;-57
2023/07/12 08:53:16;;;;;;;10.68;9.63;;;;;;;28.87;66.12;101068.63;5103892;27;20047;-57
2023/07/12 08:55:44;;;;;;;12.23;11.00;;;;;;;28.86;65.99;101065.06;5113872;27;20059;-57
2023/07/12 08:58:18;;;;;;;11.55;10.05;;;;;;;28.88;65.96;101059.41;5112737;27;20478;-57
2023/07/12 09:00:52;;;;;;;13.88;10.05;;;;;;;28.88;65.46;101056.69;5122405;27;20051;-57
2023/07/12 09:03:19;;;;;;;11.70;10.48;;;;;;;28.89;65.35;101051.06;5114165;27;20048;-56
2023/07/12 09:05:47;;;;;;;12.05;10.82;;;;;;;28.88;65.30;101060.25;5113308;27;20036;-57
2023/07/12 09:08:20;;;;;;;10.93;9.55;;;;;;;28.90;65.50;101066.38;5113633;27;20048;-56
2023/07/12 09:10:52;;;;;;;11.02;9.93;;;;;;;28.91;65.12;101073.50;5114282;27;20058;-56
2023/07/12 09:13:19;;;;;;;11.27;10.07;;;;;;;28.91;64.85;101068.06;5114305;27;20489;-55
2023/07/12 09:15:52;;;;;;;14.05;11.38;;;;;;;28.92;64.77;101072.47;5111663;27;20401;-56
2023/07/12 09:18:27;;;;;;;12.57;10.38;;;;;;;28.94;64.52;101066.84;5116951;27;20377;-56
2023/07/12 09:20:58;;;;;;;12.27;9.40;;;;;;;28.95;64.67;101054.91;5112307;28;20094;-54
2023/07/12 09:23:37;;;;;;;9.38;7.95;;;;;;;28.94;64.54;101054.06;5113135;27;20481;-54
2023/07/12 09:26:11;;;;;;;8.60;7.82;;;;;;;28.95;64.51;101054.91;5115581;27;20036;-56
2023/07/12 09:28:40;;;;;;;11.40;7.70;;;;;;;28.95;64.60;101054.91;5112640;27;20113;-55
2023/07/12 09:31:19;;;;;;;11.32;8.98;;;;;;;28.95;64.30;101065.81;5113279;28;20055;-56
2023/07/12 09:33:53;;;;;;;14.82;8.90;;;;;;;28.95;64.36;101055.75;5112648;28;20048;-55
2023/07/12 09:36:21;;;;;;;11.35;8.27;;;;;;;28.94;64.25;101054.06;5113302;27;20516;-55
2023/07/12 09:38:49;;;;;;;12.45;8.30;;;;;;;28.95;64.58;101054.91;5113476;28;20413;-57
2023/07/12 09:41:24;;;;;;;11.23;8.07;;;;;;;28.94;64.52;101045.88;5112068;28;20054;-56
2023/07/12 09:43:58;;;;;;;10.00;7.43;;;;;;;28.94;64.45;101042.31;5116039;28;20043;-57
2023/07/12 09:46:41;;;;;;;8.70;7.80;;;;;;;28.96;63.75;101042.97;5113257;28;20044;-57
2023/07/12 09:49:51;;;;;;;10.60;7.95;;;;;;;28.95;63.51;101039.41;5111697;28;20066;-56
2023/07/12 09:52:31;;;;;;;10.00;7.78;;;;;;;28.96;63.64;101034.78;5088590;28;20501;-57
2023/07/12 09:55:15;;;;;;;13.05;8.40;;;;;;;28.96;63.12;101032.06;5112416;28;20051;-55
2023/07/12 09:57:55;;;;;;;10.43;7.35;;;;;;;28.97;63.37;101036.53;5121614;28;20057;-56
2023/07/12 10:00:39;;;;;;;10.25;7.60;;;;;;;28.98;63.24;101038.22;5113205;28;20046;-55
2023/07/12 10:03:16;;;;;;;8.93;6.95;;;;;;;28.99;62.99;101029.84;5109824;28;20044;-57
2023/07/12 10:06:12;;;;;;;10.48;7.47;;;;;;;29.04;62.61;101027.38;5114688;27;20051;-57
2023/07/12 10:09:14;;;;;;;11.57;7.30;;;;;;;29.10;62.75;101035.84;5113137;28;20054;-57
2023/07/12 10:12:14;;;;;;;11.25;7.10;;;;;;;29.12;62.67;101039.19;5125945;27;20058;-58
2023/07/12 10:14:43;;;;;;;9.63;7.18;;;;;;;29.12;62.81;101036.47;5090048;28;20063;-58
2023/07/12 10:17:24;;;;;;;8.43;7.47;;;;;;;29.12;62.35;101040.03;5117355;27;20055;-58
2023/07/12 10:19:56;;;;;;;9.23;6.90;;;;;;;29.12;62.40;101041.94;5108426;27;20485;-58
2023/07/12 10:22:38;;;;;;;10.70;6.93;;;;;;;29.13;62.39;101032.72;5116932;27;20404;-58
2023/07/12 10:25:15;;;;;;;9.02;7.93;;;;;;;29.11;62.89;101021.16;5119288;27;20047;-57
2023/07/12 10:27:49;;;;;;;8.98;7.68;;;;;;;29.12;62.68;101034.59;5107970;27;20413;-57
2023/07/12 10:30:19;;;;;;;9.13;8.05;;;;;;;29.13;62.46;101033.59;5116932;27;20048;-57
2023/07/12 10:32:52;;;;;;;10.40;7.65;;;;;;;29.11;62.46;101027.47;5115647;27;20044;-57
2023/07/12 10:35:35;;;;;;;8.43;6.85;;;;;;;29.12;62.61;101025.56;5117368;27;20477;-57
2023/07/12 10:38:22;;;;;;;13.13;7.53;;;;;;;29.12;62.48;101025.56;5116996;27;20054;-58
2023/07/12 10:41:05;;;;;;;10.63;8.25;;;;;;;29.12;62.44;101026.41;5118583;27;20043;-58
2023/07/12 10:43:37;;;;;;;8.85;7.43;;;;;;;29.12;62.03;101012.78;5108753;27;20039;-59
2023/07/12 10:46:09;;;;;;;9.48;7.13;;;;;;;29.12;62.21;101020.13;5116069;27;20042;-58
2023/07/12 10:48:40;;;;;;;7.97;7.15;;;;;;;29.12;62.10;101012.78;5117091;27;20054;-58
2023/07/12 10:51:35;;;;;;;9.32;7.53;;;;;;;29.15;62.05;101012.41;5116744;27;20066;-58
2023/07/12 10:54:05;;;;;;;12.10;7.60;;;;;;;29.15;61.56;100998.78;5115255;27;20051;-58
2023/07/12 10:56:35;;;;;;;11.77;8.02;;;;;;;29.17;61.51;100993.13;5118266;27;20513;-58
2023/07/12 10:59:25;;;;;;;9.82;7.85;;;;;;;29.17;61.07;100987.66;5106689;27;20043;-58
2023/07/12 11:01:54;;;;;;;10.45;7.80;;;;;;;29.17;60.93;100974.03;5086966;28;20052;-58
2023/07/12 11:04:31;;;;;;;10.35;8.20;;;;;;;29.17;61.16;100976.75;5117156;27;20417;-58
2023/07/12 11:07:22;;;;;;;11.30;7.90;;;;;;;29.18;61.13;100990.22;5106949;27;20051;-57
2023/07/12 11:09:50;;;;;;;14.02;8.18;;;;;;;29.22;61.25;100988.78;5109858;27;20052;-56
2023/07/12 11:12:26;;;;;;;12.88;8.60;;;;;;;29.31;60.67;100984.88;5118153;27;20109;-57
2023/07/12 11:15:09;;;;;;;12.93;9.00;;;;;;;29.32;60.44;100986.56;5107257;27;20148;-57
2023/07/12 11:17:58;;;;;;;9.50;7.72;;;;;;;29.34;60.43;100978.22;5114941;27;20053;-57
2023/07/12 11:20:30;;;;;;;13.65;7.95;;;;;;;29.36;60.51;100976.13;5125011;27;20047;-57
2023/07/12 11:23:26;;;;;;;11.83;9.87;;;;;;;29.47;60.84;100978.34;5115733;27;20048;-57
2023/07/12 11:26:22;;;;;;;13.68;8.68;;;;;;;29.66;60.93;100978.75;5115316;27;20405;-57
2023/07/12 11:28:50;;;;;;;15.45;8.88;;;;;;;30.07;59.09;100981.59;5122148;27;20058;-56
2023/07/12 11:31:30;;;;;;;10.70;7.85;;;;;;;29.98;59.31;100969.09;5114571;27;20412;-57
2023/07/12 11:34:23;;;;;;;12.65;8.40;;;;;;;29.91;59.63;100976.44;5118283;27;20047;-57
2023/07/12 11:36:54;;;;;;;;;;;;;;;29.86;59.77;100974.28;5115600;27;20047;-58